Terminal Aerodrome Forecast
Issued by NWS Bismarck, ND

Home | Current Version | Previous Version | Graphics & Text | Print | Product List | Glossary On
Versions: 1 2 3 4 5 6 7 8 9 10 11 12 13 14 15 16 17
463
FTUS43 KBIS 180926 AAB
TAFBIS
TAF AMD
KBIS 180926Z 1809/1906 25011KT P6SM BKN220 WS020/24040KT
     FM180930 28014G19KT P6SM SCT220 WS020/30045KT
     FM181100 30017G26KT P6SM SCT250 WS020/30045KT
     FM181300 30015KT P6SM SCT250 WS020/31035KT
     FM181700 30018G25KT P6SM FEW120 SCT250
     FM182300 28011KT P6SM FEW120 FEW250
     FM190200 21004KT P6SM FEW120 FEW250=

USA.gov is the U.S. government's official web portal to all federal, state and local government web resources and services.